createdAt,value
2019-04-07T00:00:32.777Z,99409.58
2019-04-07T00:03:01.410Z,99413.42
2019-04-07T00:05:29.981Z,99415.27
2019-04-07T00:07:59.129Z,99412.77
2019-04-07T00:10:28.637Z,99417.30
2019-04-07T00:12:57.483Z,99418.47
2019-04-07T00:15:26.667Z,99419.81
2019-04-07T00:17:55.396Z,99415.42
2019-04-07T00:20:25.480Z,99411.08
2019-04-07T00:22:55.253Z,99415.42
2019-04-07T00:25:25.067Z,99415.61
2019-04-07T00:27:53.740Z,99413.77
2019-04-07T00:30:22.479Z,99409.88
2019-04-07T00:32:51.280Z,99410.21
2019-04-07T00:35:26.914Z,99414.73
2019-04-07T00:37:50.394Z,99418.11
2019-04-07T00:40:19.719Z,99413.41
2019-04-07T00:42:48.305Z,99417.09
2019-04-07T00:45:17.233Z,99414.89
2019-04-07T00:47:46.189Z,99417.44
2019-04-07T00:50:15.302Z,99414.07
2019-04-07T00:52:44.858Z,99414.07
2019-04-07T00:55:14.216Z,99412.41
2019-04-07T00:57:42.995Z,99415.09
2019-04-07T01:00:13.365Z,99407.68
2019-04-07T01:02:41.981Z,99410.69
2019-04-07T01:05:11.514Z,99410.38
2019-04-07T01:07:40.234Z,99413.21
2019-04-07T01:10:09.686Z,99407.66
2019-04-07T01:12:38.562Z,99407.67
2019-04-07T01:15:09.894Z,99404.11
2019-04-07T01:17:39.339Z,99404.61
2019-04-07T01:20:09.283Z,99404.41
2019-04-07T01:22:37.891Z,99405.09
2019-04-07T01:25:07.147Z,99407.92
2019-04-07T01:27:35.857Z,99404.19
2019-04-07T01:30:06.378Z,99411.54
2019-04-07T01:32:35.641Z,99412.36
2019-04-07T01:35:07.059Z,99413.52
2019-04-07T01:37:36.246Z,99403.84
2019-04-07T01:40:06.609Z,99406.70
2019-04-07T01:42:46.267Z,99414.93
2019-04-07T01:45:22.820Z,99416.91
2019-04-07T01:48:11.689Z,99413.02
2019-04-07T01:50:45.194Z,99412.30
2019-04-07T01:53:22.801Z,99411.77
2019-04-07T01:55:59.554Z,99416.59
2019-04-07T01:58:30.716Z,99407.83
2019-04-07T02:01:03.909Z,99407.63
2019-04-07T02:03:34.188Z,99401.55
2019-04-07T02:06:07.329Z,99405.34
2019-04-07T02:08:37.543Z,99406.31
2019-04-07T02:11:23.914Z,99400.09
2019-04-07T02:13:57.449Z,99404.42
2019-04-07T02:16:46.762Z,99410.09
2019-04-07T02:19:26.301Z,99409.20
2019-04-07T02:22:02.458Z,99408.20
2019-04-07T02:24:33.374Z,99405.47
2019-04-07T02:27:06.333Z,99407.60
2019-04-07T02:29:53.032Z,99407.09
2019-04-07T02:32:32.657Z,99412.41
2019-04-07T02:35:09.220Z,99408.50
2019-04-07T02:37:39.447Z,99408.48
2019-04-07T02:40:16.345Z,99410.61
2019-04-07T02:42:47.069Z,99403.86
2019-04-07T02:45:30.490Z,99411.03
2019-04-07T02:48:12.574Z,99408.66
2019-04-07T02:50:46.543Z,99408.11
2019-04-07T02:53:16.798Z,99411.09
2019-04-07T02:55:47.117Z,99410.38
2019-04-07T02:58:23.959Z,99406.80
2019-04-07T03:00:54.447Z,99407.94
2019-04-07T03:03:36.985Z,99404.88
2019-04-07T03:06:07.176Z,99408.34
2019-04-07T03:08:37.827Z,99406.75
2019-04-07T03:11:26.638Z,99409.53
2019-04-07T03:14:14.114Z,99409.64
2019-04-07T03:16:44.778Z,99406.05
2019-04-07T03:19:24.036Z,99404.81
2019-04-07T03:21:57.802Z,99410.98
2019-04-07T03:24:37.331Z,99414.93
2019-04-07T03:27:19.550Z,99412.41
2019-04-07T03:29:49.765Z,99414.53
2019-04-07T03:32:23.939Z,99414.05
2019-04-07T03:34:54.100Z,99416.56
2019-04-07T03:37:38.702Z,99415.88
2019-04-07T03:40:18.666Z,99412.64
2019-04-07T03:42:55.307Z,99411.40
2019-04-07T03:45:34.577Z,99410.71
2019-04-07T03:48:06.893Z,99408.23
2019-04-07T03:50:43.063Z,99407.91
2019-04-07T03:53:30.471Z,99408.39
2019-04-07T03:56:01.794Z,99405.84
2019-04-07T03:58:50.741Z,99409.25
2019-04-07T04:01:33.677Z,99399.52
2019-04-07T04:04:05.351Z,99407.48
2019-04-07T04:06:51.525Z,99400.59
2019-04-07T04:09:28.420Z,99400.39
2019-04-07T04:12:03.039Z,99398.17
2019-04-07T04:14:36.410Z,99400.16
2019-04-07T04:17:05.188Z,99397.28
2019-04-07T04:19:34.724Z,99401.06
2019-04-07T04:22:04.071Z,99399.89
2019-04-07T04:24:33.662Z,99400.25
2019-04-07T04:27:02.531Z,99399.04
2019-04-07T04:29:31.804Z,99405.04
2019-04-07T04:32:01.567Z,99402.48
2019-04-07T04:34:30.284Z,99404.84
2019-04-07T04:36:59.918Z,99401.67
2019-04-07T04:39:29.828Z,99408.00
2019-04-07T04:41:58.408Z,99410.67
2019-04-07T04:44:28.331Z,99412.50
2019-04-07T04:46:58.293Z,99414.20
2019-04-07T04:49:27.102Z,99415.87
2019-04-07T04:51:56.078Z,99419.59
2019-04-07T04:54:25.834Z,99417.20
2019-04-07T04:56:54.951Z,99422.71
2019-04-07T04:59:23.811Z,99422.71
2019-04-07T05:01:53.130Z,99428.71
2019-04-07T05:04:23.005Z,99427.50
2019-04-07T05:06:52.500Z,99433.86
2019-04-07T05:09:21.208Z,99435.20
2019-04-07T05:11:49.806Z,99438.20
2019-04-07T05:14:18.436Z,99440.59
2019-04-07T05:16:47.206Z,99444.59
2019-04-07T05:19:16.334Z,99445.66
2019-04-07T05:21:45.787Z,99443.34
2019-04-07T05:24:14.690Z,99447.68
2019-04-07T05:26:43.333Z,99452.13
2019-04-07T05:29:11.964Z,99450.63
2019-04-07T05:31:41.251Z,99453.87
2019-04-07T05:34:10.783Z,99459.91
2019-04-07T05:36:40.114Z,99451.39
2019-04-07T05:39:10.228Z,99467.97
2019-04-07T05:41:40.169Z,99470.36
2019-04-07T05:44:08.882Z,99465.88
2019-04-07T05:46:40.927Z,99470.92
2019-04-07T05:49:07.758Z,99472.66
2019-04-07T05:51:37.004Z,99471.88
2019-04-07T05:54:05.698Z,99478.77
2019-04-07T05:56:34.842Z,99480.79
2019-04-07T05:59:03.504Z,99486.51
2019-04-07T06:01:32.302Z,99487.68
2019-04-07T06:04:01.274Z,99492.06
2019-04-07T06:06:29.990Z,99494.94
2019-04-07T06:08:58.701Z,99494.12
2019-04-07T06:11:33.148Z,99495.06
2019-04-07T06:13:59.928Z,99495.27
2019-04-07T06:16:28.814Z,99496.50
2019-04-07T06:18:57.764Z,99501.88
2019-04-07T06:21:26.503Z,99500.97
2019-04-07T06:23:58.424Z,99498.55
2019-04-07T06:26:25.627Z,99498.55
2019-04-07T06:28:58.071Z,99505.31
2019-04-07T06:31:26.302Z,99510.70
2019-04-07T06:33:55.232Z,99513.57
2019-04-07T06:36:26.602Z,99510.65
2019-04-07T06:38:55.010Z,99508.31
2019-04-07T06:41:24.278Z,99506.81
2019-04-07T06:44:02.611Z,99503.81
2019-04-07T06:46:39.050Z,99512.14
2019-04-07T06:49:12.279Z,99510.20
2019-04-07T06:51:42.403Z,99509.02
2019-04-07T06:54:28.702Z,99505.53
2019-04-07T06:56:59.096Z,99513.08
2019-04-07T06:59:49.155Z,99516.72
2019-04-07T07:02:20.845Z,99515.64
2019-04-07T07:04:53.998Z,99522.38
2019-04-07T07:07:26.109Z,99518.09
2019-04-07T07:10:00.130Z,99516.88
2019-04-07T07:12:38.787Z,99523.80
2019-04-07T07:15:15.657Z,99526.59
2019-04-07T07:17:50.788Z,99530.28
2019-04-07T07:20:23.132Z,99524.36
2019-04-07T07:23:03.826Z,99525.85
2019-04-07T07:25:33.307Z,99529.53
2019-04-07T07:28:04.362Z,99527.23
2019-04-07T07:30:43.849Z,99525.66
2019-04-07T07:33:16.333Z,99519.09
2019-04-07T07:35:48.195Z,99523.36
2019-04-07T07:38:16.488Z,99526.45
2019-04-07T07:40:47.768Z,99523.22
2019-04-07T07:43:16.795Z,99527.91
2019-04-07T07:45:48.163Z,99524.61
2019-04-07T07:48:18.422Z,99529.63
2019-04-07T07:50:48.757Z,99531.03
2019-04-07T07:53:21.902Z,99533.16
2019-04-07T07:55:48.991Z,99537.94
2019-04-07T07:58:19.412Z,99539.62
2019-04-07T08:00:48.498Z,99535.43
2019-04-07T08:03:20.871Z,99543.94
2019-04-07T08:05:50.057Z,99547.02
2019-04-07T08:08:20.035Z,99546.66
2019-04-07T08:10:48.839Z,99544.42
2019-04-07T08:13:19.009Z,99545.64
2019-04-07T08:15:47.812Z,99547.75
2019-04-07T08:18:19.384Z,99546.94
2019-04-07T08:20:46.685Z,99544.63
2019-04-07T08:23:15.563Z,99539.13
2019-04-07T08:25:44.258Z,99546.25
2019-04-07T08:28:13.555Z,99544.43
2019-04-07T08:30:44.430Z,99544.37
2019-04-07T08:33:12.686Z,99538.98
2019-04-07T08:35:41.255Z,99553.55
2019-04-07T08:38:09.898Z,99543.01
2019-04-07T08:40:39.252Z,99544.88
2019-04-07T08:43:08.284Z,99545.68
2019-04-07T08:45:37.175Z,99546.48
2019-04-07T08:48:06.376Z,99545.86
2019-04-07T08:50:35.093Z,99540.44
2019-04-07T08:53:04.336Z,99541.70
2019-04-07T08:55:33.439Z,99539.13
2019-04-07T08:58:04.308Z,99545.03
2019-04-07T09:00:34.104Z,99535.11
2019-04-07T09:03:10.564Z,99543.81
2019-04-07T09:05:33.547Z,99549.53
2019-04-07T09:08:05.728Z,99538.18
2019-04-07T09:10:37.165Z,99538.66
2019-04-07T09:13:08.367Z,99539.88
2019-04-07T09:15:48.857Z,99546.63
2019-04-07T09:18:27.852Z,99544.56
2019-04-07T09:20:58.071Z,99537.56
2019-04-07T09:23:31.289Z,99537.56
2019-04-07T09:26:04.112Z,99543.57
2019-04-07T09:28:52.930Z,99551.27
2019-04-07T09:31:21.976Z,99546.16
2019-04-07T09:33:52.836Z,99553.30
2019-04-07T09:36:31.585Z,99554.31
2019-04-07T09:39:03.605Z,99554.73
2019-04-07T09:41:32.713Z,99557.48
2019-04-07T09:44:05.470Z,99554.80
2019-04-07T09:46:48.910Z,99552.41
2019-04-07T09:49:32.034Z,99546.80
2019-04-07T09:52:05.639Z,99547.60
2019-04-07T09:54:35.940Z,99548.59
2019-04-07T09:57:30.323Z,99553.58
2019-04-07T10:00:12.691Z,99548.16
2019-04-07T10:02:43.701Z,99545.11
2019-04-07T10:05:20.230Z,99542.91
2019-04-07T10:08:11.992Z,99540.38
2019-04-07T10:10:43.719Z,99552.89
2019-04-07T10:13:20.282Z,99546.97
2019-04-07T10:15:54.242Z,99548.95
2019-04-07T10:18:34.887Z,99543.77
2019-04-07T10:21:11.123Z,99549.89
2019-04-07T10:23:45.856Z,99543.94
2019-04-07T10:26:30.246Z,99547.62
2019-04-07T10:29:04.435Z,99547.10
2019-04-07T10:31:34.978Z,99548.34
2019-04-07T10:34:13.298Z,99546.74
2019-04-07T10:36:47.454Z,99548.34
2019-04-07T10:39:18.617Z,99547.00
2019-04-07T10:41:55.261Z,99548.22
2019-04-07T10:44:32.368Z,99545.13
2019-04-07T10:47:18.400Z,99550.84
2019-04-07T10:49:58.572Z,99532.53
2019-04-07T10:52:23.592Z,99550.58
2019-04-07T10:54:53.813Z,99546.35
2019-04-07T10:57:24.087Z,99552.53
2019-04-07T11:00:11.078Z,99543.61
2019-04-07T11:02:41.522Z,99542.09
2019-04-07T11:05:28.070Z,99546.68
2019-04-07T11:08:14.979Z,99545.03
2019-04-07T11:10:51.589Z,99547.98
2019-04-07T11:13:38.717Z,99546.52
2019-04-07T11:16:09.264Z,99542.13
2019-04-07T11:18:45.613Z,99556.05
2019-04-07T11:21:32.421Z,99547.81
2019-04-07T11:24:03.817Z,99549.08
2019-04-07T11:26:49.337Z,99547.07
2019-04-07T11:29:29.561Z,99544.55
2019-04-07T11:32:00.392Z,99553.08
2019-04-07T11:34:31.081Z,99548.89
2019-04-07T11:37:17.856Z,99552.24
2019-04-07T11:39:54.586Z,99544.91
2019-04-07T11:42:43.213Z,99539.83
2019-04-07T11:45:22.633Z,99548.11
2019-04-07T11:47:53.016Z,99539.59
2019-04-07T11:50:23.761Z,99543.25
2019-04-07T11:53:00.532Z,99523.75
2019-04-07T11:55:47.505Z,99540.05
2019-04-07T11:58:35.716Z,99537.44
2019-04-07T12:01:06.830Z,99538.00
2019-04-07T12:03:40.664Z,99536.78
2019-04-07T12:06:14.355Z,99547.67
2019-04-07T12:08:51.406Z,99545.75
2019-04-07T12:11:27.821Z,99532.92
2019-04-07T12:14:07.421Z,99545.41
2019-04-07T12:16:56.944Z,99541.92
2019-04-07T12:19:26.368Z,99534.17
2019-04-07T12:22:08.638Z,99540.05
2019-04-07T12:24:38.022Z,99537.82
2019-04-07T12:27:13.333Z,99536.95
2019-04-07T12:29:52.704Z,99533.25
2019-04-07T12:32:26.035Z,99531.47
2019-04-07T12:35:03.200Z,99539.80
2019-04-07T12:37:50.299Z,99530.05
2019-04-07T12:40:33.205Z,99537.73
2019-04-07T12:43:04.623Z,99532.73
2019-04-07T12:45:51.377Z,99534.64
2019-04-07T12:48:25.856Z,99522.73
2019-04-07T12:51:04.116Z,99529.13
2019-04-07T12:53:49.021Z,99521.77
2019-04-07T12:56:36.097Z,99524.64
2019-04-07T12:59:23.989Z,99523.40
2019-04-07T13:02:11.357Z,99522.31
2019-04-07T13:05:02.028Z,99525.02
2019-04-07T13:07:37.511Z,99532.05
2019-04-07T13:10:14.977Z,99541.86
2019-04-07T13:12:48.018Z,99526.58
2019-04-07T13:15:33.563Z,99527.67
2019-04-07T13:18:06.453Z,99526.98
2019-04-07T13:20:50.328Z,99522.94
2019-04-07T13:23:29.784Z,99517.55
2019-04-07T13:26:16.480Z,99513.59
2019-04-07T13:28:47.894Z,99511.13
2019-04-07T13:31:19.175Z,99511.45
2019-04-07T13:33:50.163Z,99506.28
2019-04-07T13:36:30.078Z,99509.33
2019-04-07T13:39:00.927Z,99509.98
2019-04-07T13:41:52.730Z,99504.28
2019-04-07T13:44:38.775Z,99510.13
2019-04-07T13:47:10.800Z,99507.09
2019-04-07T13:49:57.333Z,99502.34
2019-04-07T13:52:34.659Z,99506.33
2019-04-07T13:55:11.912Z,99503.34
2019-04-07T13:57:59.459Z,99502.72
2019-04-07T14:00:28.429Z,99499.63
2019-04-07T14:02:58.919Z,99503.16
2019-04-07T14:05:53.531Z,99501.44
2019-04-07T14:08:27.021Z,99503.45
2019-04-07T14:10:58.223Z,99491.24
2019-04-07T14:13:37.925Z,99495.91
2019-04-07T14:16:19.750Z,99493.56
2019-04-07T14:18:54.610Z,99493.56
2019-04-07T14:21:27.398Z,99498.20
2019-04-07T14:23:59.379Z,99494.16
2019-04-07T14:26:42.398Z,99496.38
2019-04-07T14:29:23.136Z,99499.98
2019-04-07T14:31:53.515Z,99490.09
2019-04-07T14:34:37.249Z,99493.13
2019-04-07T14:37:13.464Z,99491.55
2019-04-07T14:39:44.472Z,99497.04
2019-04-07T14:42:18.580Z,99488.12
2019-04-07T14:44:58.917Z,99490.94
2019-04-07T14:47:29.376Z,99490.73
2019-04-07T14:50:15.980Z,99493.69
2019-04-07T14:52:47.112Z,99491.54
2019-04-07T14:55:24.801Z,99490.84
2019-04-07T15:01:20.274Z,99490.54
2019-04-07T15:03:48.991Z,99488.20
2019-04-07T15:06:18.491Z,99491.04
2019-04-07T15:08:51.953Z,99492.83
2019-04-07T15:11:22.200Z,99490.67
2019-04-07T15:13:50.863Z,99497.59
2019-04-07T15:16:20.696Z,99495.75
2019-04-07T15:18:55.006Z,99507.59
2019-04-07T15:21:23.955Z,99493.80
2019-04-07T15:23:52.992Z,99493.80
2019-04-07T15:26:22.152Z,99493.17
2019-04-07T15:28:50.798Z,99495.91
2019-04-07T15:31:20.482Z,99489.19
2019-04-07T15:33:49.784Z,99488.58
2019-04-07T15:36:19.879Z,99494.09
2019-04-07T15:38:49.732Z,99489.39
2019-04-07T15:41:19.525Z,99488.78
2019-04-07T15:43:50.044Z,99501.03
2019-04-07T15:46:19.602Z,99491.92
2019-04-07T15:48:48.475Z,99489.63
2019-04-07T15:51:19.583Z,99498.31
2019-04-07T15:53:51.523Z,99493.84
2019-04-07T15:56:19.651Z,99505.44
2019-04-07T15:58:49.524Z,99502.61
2019-04-07T16:01:18.169Z,99504.95
2019-04-07T16:03:50.516Z,99509.12
2019-04-07T16:06:18.193Z,99507.86
2019-04-07T16:08:46.915Z,99514.37
2019-04-07T16:11:17.781Z,99509.34
2019-04-07T16:13:46.405Z,99513.22
2019-04-07T16:16:17.707Z,99524.71
2019-04-07T16:18:46.702Z,99513.63
2019-04-07T16:21:16.228Z,99519.48
2019-04-07T16:23:50.216Z,99520.73
2019-04-07T16:26:19.688Z,99521.26
2019-04-07T16:28:50.417Z,99522.84
2019-04-07T16:31:19.851Z,99522.84
2019-04-07T16:33:49.712Z,99523.06
2019-04-07T16:36:18.481Z,99528.91
2019-04-07T16:38:47.002Z,99524.82
2019-04-07T16:41:17.896Z,99528.28
2019-04-07T16:43:47.293Z,99535.81
2019-04-07T16:46:20.373Z,99536.74
2019-04-07T16:48:46.398Z,99532.97
2019-04-07T16:51:16.334Z,99534.60
2019-04-07T16:53:48.556Z,99538.03
2019-04-07T16:56:19.306Z,99532.16
2019-04-07T16:58:47.489Z,99536.83
2019-04-07T17:01:18.539Z,99543.26
2019-04-07T17:03:47.213Z,99542.16
2019-04-07T17:06:17.891Z,99541.89
2019-04-07T17:08:47.283Z,99546.47
2019-04-07T17:11:19.760Z,99542.58
2019-04-07T17:13:49.162Z,99542.58
2019-04-07T17:16:22.456Z,99551.61
2019-04-07T17:18:49.710Z,99545.38
2019-04-07T17:21:20.429Z,99552.55
2019-04-07T17:23:53.169Z,99554.70
2019-04-07T17:26:21.856Z,99556.51
2019-04-07T17:28:56.939Z,99556.27
2019-04-07T17:31:29.623Z,99565.19
2019-04-07T17:33:55.839Z,99561.08
2019-04-07T17:36:25.106Z,99568.64
2019-04-07T17:39:03.997Z,99569.63
2019-04-07T17:41:31.835Z,99570.91
2019-04-07T17:44:02.594Z,99576.29
2019-04-07T17:46:34.103Z,99577.75
2019-04-07T17:49:23.385Z,99579.53
2019-04-07T17:51:56.390Z,99582.58
2019-04-07T17:54:28.825Z,99586.60
2019-04-07T17:57:03.154Z,99586.72
2019-04-07T18:00:06.472Z,99589.87
2019-04-07T18:02:53.941Z,99592.37
2019-04-07T18:05:26.435Z,99589.50
2019-04-07T18:08:15.837Z,99595.77
2019-04-07T18:11:00.707Z,99598.30
2019-04-07T18:13:46.021Z,99600.13
2019-04-07T18:16:21.308Z,99607.04
2019-04-07T18:18:57.943Z,99609.63
2019-04-07T18:21:47.225Z,99612.11
2019-04-07T18:24:34.159Z,99611.34
2019-04-07T18:27:19.509Z,99617.84
2019-04-07T18:29:50.316Z,99617.41
2019-04-07T18:32:37.488Z,99623.05
2019-04-07T18:35:26.452Z,99622.61
2019-04-07T18:38:17.341Z,99624.17
2019-04-07T18:41:08.137Z,99631.65
2019-04-07T18:43:49.145Z,99639.47
2019-04-07T18:46:13.312Z,99636.32
2019-04-07T18:48:47.827Z,99642.23
2019-04-07T18:51:21.919Z,99650.39
2019-04-07T18:53:53.114Z,99653.14
2019-04-07T18:56:40.730Z,99650.30
2019-04-07T18:59:18.183Z,99660.29
2019-04-07T19:01:54.599Z,99662.34
2019-04-07T19:04:29.055Z,99659.98
2019-04-07T19:07:00.045Z,99670.28
2019-04-07T19:09:43.923Z,99659.83
2019-04-07T19:12:34.347Z,99672.52
2019-04-07T19:15:08.902Z,99672.67
2019-04-07T19:17:54.665Z,99677.77
2019-04-07T19:20:29.077Z,99683.97
2019-04-07T19:23:03.064Z,99685.01
2019-04-07T19:25:42.651Z,99685.33
2019-04-07T19:28:13.123Z,99696.66
2019-04-07T19:30:52.513Z,99696.16
2019-04-07T19:33:29.866Z,99697.69
2019-04-07T19:36:18.641Z,99697.19
2019-04-07T19:38:51.166Z,99699.57
2019-04-07T19:41:29.417Z,99707.82
2019-04-07T19:44:02.358Z,99701.08
2019-04-07T19:46:48.946Z,99696.87
2019-04-07T19:49:22.615Z,99706.31
2019-04-07T19:51:51.810Z,99702.61
2019-04-07T19:54:40.045Z,99704.64
2019-04-07T19:57:27.787Z,99704.67
2019-04-07T20:00:21.540Z,99699.45
2019-04-07T20:02:53.159Z,99699.62
2019-04-07T20:05:23.489Z,99700.97
2019-04-07T20:08:10.224Z,99705.89
2019-04-07T20:10:44.672Z,99702.34
2019-04-07T20:13:21.985Z,99702.84
2019-04-07T20:16:12.885Z,99703.69
2019-04-07T20:18:59.514Z,99712.80
2019-04-07T20:21:49.318Z,99708.38
2019-04-07T20:24:25.917Z,99711.41
2019-04-07T20:27:03.031Z,99709.41
2019-04-07T20:29:44.471Z,99713.10
2019-04-07T20:32:16.536Z,99716.30
2019-04-07T20:34:57.020Z,99716.30
2019-04-07T20:37:34.450Z,99718.15
2019-04-07T20:40:08.654Z,99716.64
2019-04-07T20:42:57.092Z,99724.22
2019-04-07T20:45:26.811Z,99721.20
2019-04-07T20:48:03.206Z,99720.89
2019-04-07T20:50:37.690Z,99717.86
2019-04-07T20:53:16.483Z,99716.17
2019-04-07T20:55:45.182Z,99718.52
2019-04-07T20:58:44.355Z,99723.23
2019-04-07T21:01:10.005Z,99715.14
2019-04-07T21:03:51.700Z,99717.67
2019-04-07T21:06:38.468Z,99724.41
2019-04-07T21:09:25.972Z,99722.88
2019-04-07T21:11:59.376Z,99716.80
2019-04-07T21:14:38.974Z,99719.50
2019-04-07T21:17:28.777Z,99724.02
2019-04-07T21:19:59.579Z,99723.53
2019-04-07T21:22:38.972Z,99720.82
2019-04-07T21:25:19.465Z,99722.47
2019-04-07T21:28:07.727Z,99724.81
2019-04-07T21:30:48.341Z,99725.82
2019-04-07T21:33:28.162Z,99728.81
2019-04-07T21:36:16.268Z,99725.59
2019-04-07T21:38:54.842Z,99725.92
2019-04-07T21:41:24.346Z,99725.89
2019-04-07T21:44:00.462Z,99728.02
2019-04-07T21:46:46.852Z,99727.98
2019-04-07T21:49:32.789Z,99724.44
2019-04-07T21:52:13.040Z,99724.27
2019-04-07T21:54:46.745Z,99722.56
2019-04-07T21:57:23.513Z,99725.05
2019-04-07T22:00:02.981Z,99720.30
2019-04-07T22:02:44.788Z,99732.89
2019-04-07T22:05:16.146Z,99728.45
2019-04-07T22:08:04.168Z,99737.50
2019-04-07T22:10:28.836Z,99742.48
2019-04-07T22:13:01.804Z,99751.53
2019-04-07T22:15:41.366Z,99746.14
2019-04-07T22:18:00.399Z,99753.84
2019-04-07T22:20:29.333Z,99750.25
2019-04-07T22:23:01.407Z,99751.04
2019-04-07T22:25:30.662Z,99751.83
2019-04-07T22:28:00.333Z,99749.89
2019-04-07T22:30:29.009Z,99751.70
2019-04-07T22:32:58.665Z,99745.77
2019-04-07T22:35:27.375Z,99748.71
2019-04-07T22:37:56.215Z,99752.23
2019-04-07T22:40:26.798Z,99753.21
2019-04-07T22:42:57.318Z,99754.53
2019-04-07T22:45:29.873Z,99754.84
2019-04-07T22:47:59.217Z,99757.96
2019-04-07T22:50:28.545Z,99756.42
2019-04-07T22:52:57.561Z,99757.44
2019-04-07T22:55:27.002Z,99758.23
2019-04-07T22:57:57.924Z,99760.73
2019-04-07T23:00:27.337Z,99750.75
2019-04-07T23:02:56.454Z,99750.72
2019-04-07T23:05:25.708Z,99755.73
2019-04-07T23:07:54.604Z,99748.34
2019-04-07T23:10:25.164Z,99756.52
2019-04-07T23:12:55.241Z,99760.75
2019-04-07T23:15:37.119Z,99750.30
2019-04-07T23:17:57.677Z,99752.66
2019-04-07T23:20:26.889Z,99754.50
2019-04-07T23:22:56.443Z,99759.51
2019-04-07T23:25:26.027Z,99754.96
2019-04-07T23:27:54.875Z,99759.78
2019-04-07T23:30:27.908Z,99756.70
2019-04-07T23:32:57.714Z,99760.34
2019-04-07T23:35:26.454Z,99761.91
2019-04-07T23:37:55.793Z,99761.69
2019-04-07T23:40:24.800Z,99758.55
2019-04-07T23:42:53.357Z,99762.47
2019-04-07T23:45:23.166Z,99759.32
2019-04-07T23:47:52.565Z,99759.57
2019-04-07T23:50:21.314Z,99756.45
2019-04-07T23:52:50.162Z,99761.49
2019-04-07T23:55:20.367Z,99759.10
2019-04-07T23:57:49.040Z,99762.36
